createdAt,value
2019-03-20T00:00:20.443Z,4.60
2019-03-20T00:02:49.797Z,5.70
2019-03-20T00:05:18.532Z,4.80
2019-03-20T00:07:46.993Z,5.30
2019-03-20T00:10:15.561Z,5.20
2019-03-20T00:12:44.017Z,5.20
2019-03-20T00:15:14.801Z,5.43
2019-03-20T00:17:43.444Z,5.35
2019-03-20T00:20:13.441Z,4.40
2019-03-20T00:22:43.377Z,4.85
2019-03-20T00:25:12.413Z,4.70
2019-03-20T00:27:41.010Z,4.43
2019-03-20T00:30:14.455Z,4.30
2019-03-20T00:32:43.029Z,6.17
2019-03-20T00:35:12.035Z,5.77
2019-03-20T00:37:40.556Z,6.00
2019-03-20T00:40:16.348Z,4.97
2019-03-20T00:42:44.810Z,4.70
2019-03-20T00:45:15.480Z,4.10
2019-03-20T00:47:43.988Z,5.20
2019-03-20T00:50:16.637Z,4.83
2019-03-20T00:52:45.089Z,4.33
2019-03-20T00:55:14.972Z,5.27
2019-03-20T00:57:43.774Z,4.80
2019-03-20T01:00:19.881Z,4.50
2019-03-20T01:02:48.328Z,5.50
2019-03-20T01:05:16.949Z,4.13
2019-03-20T01:07:45.736Z,5.03
2019-03-20T01:10:16.368Z,4.60
2019-03-20T01:12:44.908Z,4.95
2019-03-20T01:15:13.579Z,4.70
2019-03-20T01:17:42.293Z,5.25
2019-03-20T01:20:21.775Z,4.58
2019-03-20T01:22:50.360Z,5.00
2019-03-20T01:25:19.106Z,3.97
2019-03-20T01:27:47.828Z,4.80
2019-03-20T01:30:32.372Z,6.17
2019-03-20T01:33:02.190Z,5.40
2019-03-20T01:35:31.612Z,6.53
2019-03-20T01:38:00.066Z,8.60
2019-03-20T01:40:28.637Z,10.48
2019-03-20T01:42:57.328Z,10.72
2019-03-20T01:45:25.954Z,9.48
2019-03-20T01:47:54.537Z,8.18
2019-03-20T01:50:23.076Z,8.03
2019-03-20T01:52:51.685Z,7.25
2019-03-20T01:55:20.198Z,6.50
2019-03-20T01:57:48.731Z,6.58
2019-03-20T02:00:17.281Z,6.37
2019-03-20T02:02:45.881Z,11.90
2019-03-20T02:05:14.951Z,6.95
2019-03-20T04:05:31.734Z,4.20
2019-03-20T04:08:00.263Z,3.67
2019-03-20T04:10:28.819Z,4.55
2019-03-20T04:12:57.308Z,4.43
2019-03-20T04:15:25.772Z,4.43
2019-03-20T04:17:54.316Z,4.65
2019-03-20T04:20:22.895Z,4.65
2019-03-20T04:22:51.346Z,5.07
2019-03-20T04:25:19.883Z,4.90
2019-03-20T04:27:48.404Z,4.33
2019-03-20T04:30:18.095Z,3.70
2019-03-20T04:32:46.788Z,4.42
2019-03-20T04:35:15.520Z,4.77
2019-03-20T04:37:43.985Z,4.63
2019-03-20T04:40:13.985Z,4.83
2019-03-20T04:42:42.552Z,4.17
2019-03-20T04:45:14.463Z,4.30
2019-03-20T04:47:42.894Z,3.80
2019-03-20T04:50:12.349Z,4.00
2019-03-20T04:52:40.812Z,4.47
2019-03-20T04:55:09.707Z,4.10
2019-03-20T04:57:38.189Z,4.80
2019-03-20T05:00:09.939Z,4.50
2019-03-20T05:02:38.483Z,3.90
2019-03-20T05:05:07.154Z,4.37
2019-03-20T05:07:36.018Z,4.85
2019-03-20T05:10:07.810Z,4.80
2019-03-20T05:12:36.314Z,3.13
2019-03-20T05:15:07.040Z,4.77
2019-03-20T05:17:35.555Z,3.42
2019-03-20T05:20:06.289Z,5.27
2019-03-20T05:22:34.760Z,4.70
2019-03-20T05:25:03.407Z,4.67
2019-03-20T05:27:31.913Z,3.50
2019-03-20T05:30:00.372Z,3.53
2019-03-20T05:32:28.918Z,3.85
2019-03-20T05:34:57.412Z,4.23
2019-03-20T05:37:25.874Z,3.83
2019-03-20T05:39:55.876Z,3.60
2019-03-20T05:42:24.394Z,5.07
2019-03-20T05:44:52.860Z,4.33
2019-03-20T05:47:21.408Z,3.80
2019-03-20T05:49:50.119Z,4.47
2019-03-20T05:52:18.558Z,4.23
2019-03-20T05:54:47.011Z,4.50
2019-03-20T05:57:15.547Z,3.80
2019-03-20T05:59:43.953Z,4.30
2019-03-20T06:02:12.413Z,4.47
2019-03-20T06:04:40.896Z,3.70
2019-03-20T06:07:09.361Z,4.20
2019-03-20T06:09:37.955Z,3.60
2019-03-20T06:12:06.457Z,3.93
2019-03-20T06:14:34.902Z,4.00
2019-03-20T06:17:03.369Z,3.57
2019-03-20T06:19:31.856Z,3.90
2019-03-20T06:22:00.311Z,3.83
2019-03-20T06:24:28.769Z,2.80
2019-03-20T06:26:57.273Z,3.77
2019-03-20T06:29:25.750Z,2.77
2019-03-20T06:31:54.197Z,3.37
2019-03-20T06:34:22.676Z,3.10
2019-03-20T06:36:51.139Z,3.03
2019-03-20T06:39:19.587Z,4.10
2019-03-20T06:41:48.090Z,3.37
2019-03-20T06:44:16.547Z,4.10
2019-03-20T06:46:44.998Z,3.47
2019-03-20T06:49:13.480Z,4.20
2019-03-20T06:51:41.956Z,3.73
2019-03-20T06:54:10.421Z,3.60
2019-03-20T06:56:38.905Z,3.77
2019-03-20T06:59:25.668Z,3.10
2019-03-20T07:01:54.222Z,3.90
2019-03-20T07:04:31.069Z,3.73
2019-03-20T07:07:05.448Z,3.67
2019-03-20T07:09:46.154Z,3.50
2019-03-20T07:12:15.104Z,3.90
2019-03-20T07:14:43.562Z,3.43
2019-03-20T07:17:12.033Z,2.90
2019-03-20T07:19:40.523Z,3.17
2019-03-20T07:22:08.969Z,2.77
2019-03-20T07:24:37.435Z,2.70
2019-03-20T07:27:05.991Z,3.13
2019-03-20T07:29:34.452Z,3.93
2019-03-20T07:32:02.897Z,2.70
2019-03-20T07:34:31.418Z,3.20
2019-03-20T07:36:59.877Z,3.10
2019-03-20T07:39:28.333Z,3.20
2019-03-20T07:41:56.846Z,3.33
2019-03-20T07:44:25.315Z,3.40
2019-03-20T07:46:53.831Z,3.83
2019-03-20T07:49:22.311Z,2.60
2019-03-20T07:51:50.786Z,3.37
2019-03-20T07:54:19.233Z,4.23
2019-03-20T07:56:47.721Z,3.33
2019-03-20T07:59:16.175Z,3.37
2019-03-20T08:01:44.626Z,2.97
2019-03-20T08:04:13.109Z,2.90
2019-03-20T08:06:41.562Z,3.83
2019-03-20T08:09:10.020Z,4.47
2019-03-20T08:11:38.520Z,3.50
2019-03-20T08:14:07.206Z,3.83
2019-03-20T08:16:35.668Z,4.07
2019-03-20T08:19:04.234Z,3.73
2019-03-20T08:21:32.693Z,4.47
2019-03-20T08:24:01.148Z,3.70
2019-03-20T08:26:29.726Z,3.93
2019-03-20T08:28:58.223Z,4.10
2019-03-20T08:31:26.689Z,8.30
2019-03-20T08:33:55.175Z,6.80
2019-03-20T08:36:23.633Z,5.67
2019-03-20T08:38:52.088Z,6.03
2019-03-20T08:41:20.569Z,4.67
2019-03-20T08:43:49.031Z,4.50
2019-03-20T08:46:17.495Z,4.93
2019-03-20T08:48:48.324Z,5.43
2019-03-20T08:51:16.191Z,4.83
2019-03-20T08:53:44.643Z,4.63
2019-03-20T08:56:13.164Z,3.90
2019-03-20T08:58:41.630Z,5.00
2019-03-20T09:01:10.092Z,4.70
2019-03-20T09:03:38.584Z,5.00
2019-03-20T09:06:07.049Z,5.70
2019-03-20T09:08:35.591Z,6.10
2019-03-20T09:11:04.062Z,5.20
2019-03-20T09:13:32.676Z,6.33
2019-03-20T09:16:01.535Z,6.60
2019-03-20T09:18:30.045Z,6.60
2019-03-20T09:20:58.532Z,6.37
2019-03-20T09:23:26.990Z,7.20
2019-03-20T09:25:55.494Z,8.47
2019-03-20T09:28:23.952Z,8.50
2019-03-20T09:30:52.435Z,8.50
2019-03-20T09:33:20.923Z,9.00
2019-03-20T09:35:51.135Z,10.00
2019-03-20T09:38:19.610Z,10.43
2019-03-20T09:40:48.130Z,10.13
2019-03-20T09:43:16.613Z,11.80
2019-03-20T09:45:45.116Z,11.60
2019-03-20T09:48:13.577Z,12.20
2019-03-20T09:50:42.031Z,13.20
2019-03-20T09:53:10.540Z,16.63
2019-03-20T09:55:39.014Z,15.63
2019-03-20T09:58:11.481Z,14.87
2019-03-20T10:00:37.691Z,16.83
2019-03-20T10:03:06.150Z,16.23
2019-03-20T10:05:34.635Z,18.40
2019-03-20T10:08:03.181Z,17.53
2019-03-20T10:10:32.091Z,18.40
2019-03-20T10:13:00.611Z,18.80
2019-03-20T10:15:30.260Z,18.00
2019-03-20T10:17:58.847Z,16.70
2019-03-20T10:20:27.389Z,18.67
2019-03-20T10:22:55.888Z,18.57
2019-03-20T10:25:24.410Z,18.40
2019-03-20T10:27:52.887Z,17.47
2019-03-20T10:30:25.013Z,17.37
2019-03-20T10:32:53.498Z,14.20
2019-03-20T10:35:22.046Z,11.30
2019-03-20T10:37:50.543Z,12.30
2019-03-20T10:40:26.129Z,11.50
2019-03-20T10:42:54.595Z,11.23
2019-03-20T10:45:23.118Z,13.20
2019-03-20T10:47:53.260Z,12.57
2019-03-20T10:50:23.285Z,12.23
2019-03-20T10:52:51.773Z,13.70
2019-03-20T10:55:20.238Z,13.10
2019-03-20T10:57:48.773Z,13.40
2019-03-20T11:00:24.586Z,13.53
2019-03-20T11:02:53.056Z,12.50
2019-03-20T11:05:21.664Z,13.03
2019-03-20T11:07:50.235Z,13.73
2019-03-20T11:10:26.745Z,12.93
2019-03-20T11:12:55.424Z,11.70
2019-03-20T11:15:24.738Z,13.33
2019-03-20T11:17:53.202Z,14.83
2019-03-20T11:20:22.803Z,14.80
2019-03-20T11:22:51.374Z,15.70
2019-03-20T11:25:24.855Z,18.13
2019-03-20T11:27:53.378Z,49.53
2019-03-20T11:30:32.010Z,22.20
2019-03-20T11:33:00.520Z,19.30
2019-03-20T11:35:28.985Z,27.47
2019-03-20T11:37:57.456Z,20.20
2019-03-20T11:40:39.953Z,17.10
2019-03-20T11:43:08.428Z,19.33
2019-03-20T11:45:36.898Z,20.47
2019-03-20T11:48:05.754Z,18.00
2019-03-20T11:50:41.712Z,19.07
2019-03-20T11:53:10.694Z,17.87
2019-03-20T11:55:39.222Z,18.43
2019-03-20T11:58:07.992Z,18.10
2019-03-20T12:00:36.532Z,19.07
2019-03-20T12:03:05.531Z,18.23
2019-03-20T12:05:34.004Z,19.83
2019-03-20T12:08:02.594Z,20.10
2019-03-20T12:10:32.324Z,20.87
2019-03-20T12:13:00.774Z,17.77
2019-03-20T12:15:29.298Z,17.60
2019-03-20T12:17:57.761Z,16.10
2019-03-20T12:20:26.796Z,16.50
2019-03-20T12:22:55.498Z,15.90
2019-03-20T12:25:28.601Z,17.63
2019-03-20T12:27:57.139Z,17.57
2019-03-20T12:30:38.981Z,15.77
2019-03-20T12:33:07.508Z,16.00
2019-03-20T12:35:40.559Z,16.83
2019-03-20T12:38:14.865Z,16.77
2019-03-20T12:40:39.255Z,18.80
2019-03-20T12:43:07.792Z,16.77
2019-03-20T12:45:39.928Z,16.63
2019-03-20T12:48:13.681Z,17.67
2019-03-20T12:50:42.147Z,17.33
2019-03-20T12:53:20.026Z,18.10
2019-03-20T12:55:48.487Z,17.23
2019-03-20T12:58:16.958Z,17.33
2019-03-20T13:05:41.436Z,16.37
2019-03-20T13:08:09.945Z,17.77
2019-03-20T13:10:38.446Z,15.70
2019-03-20T13:13:07.370Z,17.73
2019-03-20T13:15:35.972Z,16.20
2019-03-20T13:18:04.441Z,17.73
2019-03-20T13:20:34.497Z,16.80
2019-03-20T13:23:09.849Z,14.90
2019-03-20T13:25:38.607Z,17.97
2019-03-20T13:28:07.079Z,18.50
2019-03-20T13:30:57.125Z,15.87
2019-03-20T13:33:26.364Z,18.20
2019-03-20T13:35:54.956Z,19.60
2019-03-20T13:38:23.466Z,16.33
2019-03-20T13:40:52.618Z,18.93
2019-03-20T13:43:21.074Z,19.07
2019-03-20T13:45:49.560Z,17.07
2019-03-20T13:48:18.037Z,21.53
2019-03-20T13:50:46.494Z,18.53
2019-03-20T13:53:15.499Z,19.60
2019-03-20T13:55:44.152Z,18.80
2019-03-20T13:58:12.696Z,19.67
2019-03-20T14:00:41.251Z,19.47
2019-03-20T14:03:09.717Z,18.80
2019-03-20T14:05:38.196Z,19.00
2019-03-20T14:08:06.708Z,20.53
2019-03-20T14:10:49.523Z,20.67
2019-03-20T14:13:05.473Z,17.07
2019-03-20T14:15:33.964Z,17.50
2019-03-20T14:18:02.438Z,18.57
2019-03-20T14:20:32.445Z,15.00
2019-03-20T14:23:01.295Z,18.50
2019-03-20T14:25:29.800Z,18.00
2019-03-20T14:27:58.329Z,20.00
2019-03-20T14:30:30.657Z,19.60
2019-03-20T14:32:59.298Z,18.93
2019-03-20T14:35:28.129Z,17.23
2019-03-20T14:37:56.691Z,17.40
2019-03-20T14:40:35.458Z,16.07
2019-03-20T14:42:58.575Z,15.13
2019-03-20T14:45:27.195Z,15.30
2019-03-20T14:47:55.669Z,16.67
2019-03-20T14:50:25.947Z,17.03
2019-03-20T14:52:54.519Z,17.40
2019-03-20T14:55:22.983Z,17.07
2019-03-20T14:57:51.514Z,16.47
2019-03-20T15:00:30.102Z,15.90
2019-03-20T15:02:58.604Z,15.30
2019-03-20T15:05:27.055Z,15.00
2019-03-20T15:07:55.644Z,13.10
2019-03-20T15:10:26.111Z,16.67
2019-03-20T15:12:55.023Z,14.70
2019-03-20T15:15:29.633Z,14.00
2019-03-20T15:17:58.173Z,14.37
2019-03-20T15:20:26.627Z,15.33
2019-03-20T15:22:55.211Z,15.80
2019-03-20T15:25:23.900Z,14.80
2019-03-20T15:27:52.370Z,14.40
2019-03-20T15:30:25.267Z,15.03
2019-03-20T15:32:53.803Z,13.90
2019-03-20T15:35:22.425Z,13.07
2019-03-20T15:37:50.923Z,14.20
2019-03-20T15:40:20.840Z,14.50
2019-03-20T15:42:49.299Z,16.93
2019-03-20T15:45:18.752Z,16.30
2019-03-20T15:47:47.289Z,15.37
2019-03-20T15:50:17.609Z,15.90
2019-03-20T15:52:46.124Z,14.73
2019-03-20T15:55:20.248Z,15.00
2019-03-20T15:57:48.725Z,15.10
2019-03-20T16:00:19.167Z,15.30
2019-03-20T16:02:48.276Z,14.93
2019-03-20T16:05:16.739Z,15.40
2019-03-20T16:07:45.302Z,17.80
2019-03-20T16:10:23.459Z,16.80
2019-03-20T16:12:54.070Z,17.07
2019-03-20T16:15:23.274Z,16.00
2019-03-20T16:17:51.801Z,17.63
2019-03-20T16:20:20.392Z,16.33
2019-03-20T16:22:48.853Z,19.97
2019-03-20T16:25:19.639Z,19.03
2019-03-20T16:27:48.542Z,19.70
2019-03-20T16:30:22.557Z,18.67
2019-03-20T16:32:51.087Z,20.23
2019-03-20T16:35:19.580Z,18.63
2019-03-20T16:37:48.120Z,18.67
2019-03-20T16:40:21.455Z,18.57
2019-03-20T16:42:50.095Z,18.63
2019-03-20T16:45:21.362Z,19.77
2019-03-20T16:47:49.828Z,23.43
2019-03-20T16:50:18.800Z,21.17
2019-03-20T16:52:47.266Z,19.63
2019-03-20T16:55:16.476Z,21.10
2019-03-20T16:57:45.059Z,22.13
2019-03-20T17:00:30.529Z,21.80
2019-03-20T17:02:59.191Z,20.70
2019-03-20T17:05:28.266Z,20.10
2019-03-20T17:07:56.817Z,20.47
2019-03-20T17:10:42.363Z,23.83
2019-03-20T17:13:10.824Z,21.57
2019-03-20T17:15:40.730Z,20.50
2019-03-20T17:18:09.307Z,19.77
2019-03-20T17:20:37.903Z,21.80
2019-03-20T17:23:07.837Z,20.47
2019-03-20T17:25:36.682Z,18.90
2019-03-20T17:28:05.870Z,20.10
2019-03-20T17:30:46.606Z,20.40
2019-03-20T17:33:15.076Z,19.20
2019-03-20T17:35:43.546Z,19.90
2019-03-20T17:38:12.084Z,18.87
2019-03-20T17:40:40.524Z,18.10
2019-03-20T17:43:09.008Z,19.83
2019-03-20T17:45:38.821Z,18.93
2019-03-20T17:48:07.298Z,20.03
2019-03-20T17:50:35.931Z,21.57
2019-03-20T17:53:05.462Z,20.60
2019-03-20T17:55:33.925Z,19.30
2019-03-20T17:58:02.484Z,21.20
2019-03-20T18:00:39.486Z,21.17
2019-03-20T18:03:08.518Z,21.60
2019-03-20T18:05:37.062Z,20.50
2019-03-20T18:08:08.986Z,23.37
2019-03-20T18:10:37.534Z,21.13
2019-03-20T18:13:07.720Z,24.40
2019-03-20T18:15:36.437Z,23.70
2019-03-20T18:18:06.070Z,22.17
2019-03-20T18:20:34.540Z,23.63
2019-03-20T18:23:03.055Z,24.37
2019-03-20T18:25:31.526Z,22.83
2019-03-20T18:27:59.992Z,24.23
2019-03-20T18:30:36.095Z,25.10
2019-03-20T18:33:05.357Z,23.87
2019-03-20T18:35:33.817Z,22.90
2019-03-20T18:38:02.315Z,25.23
2019-03-20T18:40:30.843Z,26.20
2019-03-20T18:42:59.312Z,26.20
2019-03-20T18:45:27.988Z,26.87
2019-03-20T18:47:56.755Z,24.73
2019-03-20T18:50:25.590Z,24.93
2019-03-20T18:52:54.103Z,23.73
2019-03-20T18:55:22.561Z,28.20
2019-03-20T18:57:51.165Z,27.67
2019-03-20T19:00:22.467Z,26.37
2019-03-20T19:02:52.486Z,30.10
2019-03-20T19:05:42.132Z,28.80
2019-03-20T19:08:10.621Z,30.40
2019-03-20T19:10:39.172Z,29.37
2019-03-20T19:13:07.760Z,25.17
2019-03-20T19:15:36.289Z,26.97
2019-03-20T19:18:05.322Z,32.97
2019-03-20T19:20:33.930Z,28.10
2019-03-20T19:23:02.450Z,35.07
2019-03-20T19:25:30.946Z,31.43
2019-03-20T19:27:59.452Z,30.50
2019-03-20T19:30:29.604Z,30.53
2019-03-20T19:32:58.069Z,31.57
2019-03-20T19:35:26.852Z,30.63
2019-03-20T19:37:55.407Z,30.57
2019-03-20T19:40:23.960Z,30.87
2019-03-20T19:42:52.461Z,33.00
2019-03-20T19:45:20.928Z,30.47
2019-03-20T19:47:49.398Z,31.00
2019-03-20T19:50:22.350Z,29.10
2019-03-20T19:52:50.809Z,30.10
2019-03-20T19:55:19.459Z,28.63
2019-03-20T19:57:47.987Z,33.90
2019-03-20T20:00:24.610Z,32.93
2019-03-20T20:02:53.127Z,31.50
2019-03-20T20:05:21.611Z,31.80
2019-03-20T20:07:50.087Z,30.70
2019-03-20T20:10:20.288Z,28.40
2019-03-20T20:12:48.829Z,32.40
2019-03-20T20:15:27.873Z,29.60
2019-03-20T20:17:56.428Z,31.63
2019-03-20T20:20:32.682Z,32.03
2019-03-20T20:23:01.149Z,34.93
2019-03-20T20:25:29.604Z,32.10
2019-03-20T20:27:58.130Z,32.97
2019-03-20T20:30:26.596Z,33.80
2019-03-20T20:32:55.077Z,35.53
2019-03-20T20:35:23.587Z,34.03
2019-03-20T20:37:52.333Z,33.63
2019-03-20T20:40:28.410Z,34.83
2019-03-20T20:42:56.884Z,34.77
2019-03-20T20:45:25.370Z,34.33
2019-03-20T20:47:53.865Z,35.30
2019-03-20T20:50:22.394Z,35.23
2019-03-20T20:52:50.857Z,37.50
2019-03-20T20:55:23.133Z,35.80
2019-03-20T20:57:51.608Z,35.03
2019-03-20T21:00:25.129Z,37.10
2019-03-20T21:02:53.712Z,36.80
2019-03-20T21:05:22.250Z,36.50
2019-03-20T21:07:50.717Z,37.83
2019-03-20T21:10:24.443Z,38.80
2019-03-20T21:12:56.710Z,34.93
2019-03-20T21:15:32.671Z,36.50
2019-03-20T21:18:16.611Z,38.30
2019-03-20T21:20:46.310Z,36.27
2019-03-20T21:23:38.579Z,39.33
2019-03-20T21:26:12.268Z,38.90
2019-03-20T21:28:52.686Z,37.40
2019-03-20T21:31:24.496Z,37.77
2019-03-20T21:33:56.155Z,35.90
2019-03-20T21:36:44.556Z,39.30
2019-03-20T21:39:13.303Z,38.50
2019-03-20T21:42:06.306Z,35.30
2019-03-20T21:44:37.949Z,42.30
2019-03-20T21:47:21.892Z,37.20
2019-03-20T21:49:50.448Z,41.37
2019-03-20T21:52:18.919Z,42.90
2019-03-20T21:55:10.188Z,40.80
2019-03-20T21:57:44.656Z,37.77
2019-03-20T22:00:31.665Z,38.30
2019-03-20T22:03:00.128Z,39.80
2019-03-20T22:05:43.577Z,40.73
2019-03-20T22:08:12.048Z,39.13
2019-03-20T22:11:04.670Z,43.67
2019-03-20T22:13:45.383Z,43.40
2019-03-20T22:16:50.385Z,43.70
2019-03-20T22:19:41.402Z,45.00
2019-03-20T22:22:15.732Z,41.00
2019-03-20T22:25:02.417Z,41.20
2019-03-20T22:27:50.629Z,39.87
2019-03-20T22:30:19.096Z,41.50
2019-03-20T22:33:07.516Z,40.87
2019-03-20T22:35:47.664Z,41.97
2019-03-20T22:38:30.954Z,38.90
2019-03-20T22:41:03.374Z,40.93
2019-03-20T22:43:35.071Z,46.00
2019-03-20T22:46:38.208Z,46.03
2019-03-20T22:49:18.911Z,47.67
2019-03-20T22:51:50.564Z,46.67
2019-03-20T22:54:39.654Z,46.10
2019-03-20T22:57:13.964Z,47.30
2019-03-20T22:59:42.435Z,48.03
2019-03-20T23:02:14.127Z,47.40
2019-03-20T23:04:48.879Z,48.53
2019-03-20T23:07:17.349Z,48.63
2019-03-20T23:09:45.867Z,42.17
2019-03-20T23:12:14.749Z,45.23
2019-03-20T23:14:43.283Z,46.50
2019-03-20T23:17:11.778Z,45.20
2019-03-20T23:19:41.586Z,45.27
2019-03-20T23:22:10.320Z,46.23
2019-03-20T23:24:38.828Z,46.20
2019-03-20T23:27:13.582Z,46.27
2019-03-20T23:29:42.049Z,46.83
2019-03-20T23:32:10.817Z,45.07
2019-03-20T23:34:39.277Z,45.87
2019-03-20T23:37:07.741Z,44.90
2019-03-20T23:39:36.322Z,45.90
2019-03-20T23:42:05.460Z,47.07
2019-03-20T23:44:33.919Z,49.07
2019-03-20T23:47:02.432Z,47.33
2019-03-20T23:49:30.901Z,44.10
2019-03-20T23:51:59.379Z,47.40
2019-03-20T23:54:31.104Z,47.33
2019-03-20T23:56:59.569Z,45.77
2019-03-20T23:59:28.032Z,45.77
